AAL3108 KDFW-KDCA
Flight info
| Callsign | AAL3108 |
|---|---|
| Flight time | 2h 8m |
| Altitude | 37000 |
| Route | TRYTN4 LOOSE Q34 SITTR TRUPS5 |
| Aircraft | B738/M-SDE2E3FGHIRWXY/LB1 |
Departure
| Time | 2026-05-06 18:00 |
|---|---|
| Airport | Dallas Fort Worth International Airport (KDFW) |
Arrival
| Time | 2026-05-06 20:08 |
|---|---|
| Airport | Ronald Reagan Washington National Airport (KDCA) |
| Time | Latitude | Longitude | Altitude | Speed | Heading |
|---|---|---|---|---|---|
| 2026-05-06 17:25 | 32.89626 | -97.04567 | 597 ft | 0 kts | 81° |
| 2026-05-06 17:49 | 32.89626 | -97.04569 | 597 ft | 2 kts | 81° |
| 2026-05-06 17:49 | 32.89621 | -97.04598 | 597 ft | 4 kts | 81° |
| 2026-05-06 17:50 | 32.89617 | -97.04629 | 597 ft | 2 kts | 81° |
| 2026-05-06 17:50 | 32.89616 | -97.04654 | 597 ft | 4 kts | 116° |
| 2026-05-06 17:50 | 32.89631 | -97.04667 | 597 ft | 3 kts | 180° |
| 2026-05-06 17:50 | 32.89654 | -97.04667 | 597 ft | 1 kts | 180° |
| 2026-05-06 17:51 | 32.89655 | -97.04667 | 597 ft | 0 kts | 180° |
| 2026-05-06 17:53 | 32.89654 | -97.04667 | 597 ft | 1 kts | 180° |
| 2026-05-06 17:53 | 32.89640 | -97.04667 | 597 ft | 4 kts | 180° |
| 2026-05-06 17:54 | 32.89602 | -97.04668 | 597 ft | 7 kts | 185° |
| 2026-05-06 17:54 | 32.89580 | -97.04691 | 596 ft | 3 kts | 251° |
| 2026-05-06 17:54 | 32.89578 | -97.04734 | 596 ft | 8 kts | 268° |
| 2026-05-06 17:54 | 32.89543 | -97.04765 | 596 ft | 7 kts | 185° |
| 2026-05-06 17:55 | 32.89480 | -97.04766 | 595 ft | 11 kts | 180° |
| 2026-05-06 17:55 | 32.89396 | -97.04766 | 594 ft | 14 kts | 180° |
| 2026-05-06 17:55 | 32.89289 | -97.04767 | 594 ft | 16 kts | 180° |
| 2026-05-06 17:55 | 32.89202 | -97.04769 | 594 ft | 7 kts | 192° |
| 2026-05-06 17:56 | 32.89181 | -97.04814 | 592 ft | 7 kts | 268° |
| 2026-05-06 17:56 | 32.89175 | -97.04871 | 591 ft | 8 kts | 240° |
| 2026-05-06 17:56 | 32.89112 | -97.04890 | 590 ft | 12 kts | 180° |
| 2026-05-06 17:56 | 32.89017 | -97.04891 | 590 ft | 18 kts | 180° |
| 2026-05-06 17:57 | 32.88894 | -97.04891 | 588 ft | 24 kts | 180° |
| 2026-05-06 17:57 | 32.88711 | -97.04892 | 587 ft | 27 kts | 180° |
| 2026-05-06 17:57 | 32.88555 | -97.04893 | 588 ft | 26 kts | 180° |
| 2026-05-06 17:57 | 32.88382 | -97.04894 | 588 ft | 24 kts | 180° |
| 2026-05-06 17:58 | 32.88224 | -97.04895 | 589 ft | 19 kts | 180° |
| 2026-05-06 17:58 | 32.88105 | -97.04895 | 588 ft | 10 kts | 180° |
| 2026-05-06 17:58 | 32.88062 | -97.04907 | 588 ft | 5 kts | 232° |
| 2026-05-06 17:58 | 32.88057 | -97.04939 | 588 ft | 5 kts | 268° |
| 2026-05-06 17:59 | 32.88057 | -97.04982 | 588 ft | 6 kts | 270° |
| 2026-05-06 17:59 | 32.88059 | -97.05048 | 589 ft | 10 kts | 281° |
| 2026-05-06 17:59 | 32.88099 | -97.05089 | 590 ft | 10 kts | 352° |
| 2026-05-06 17:59 | 32.88169 | -97.05090 | 590 ft | 16 kts | 0° |
| 2026-05-06 18:00 | 32.88525 | -97.05087 | 588 ft | 86 kts | 0° |
| 2026-05-06 18:00 | 32.89339 | -97.05083 | 597 ft | 145 kts | 360° |
| 2026-05-06 18:00 | 32.90414 | -97.05124 | 1061 ft | 158 kts | 359° |
| 2026-05-06 18:00 | 32.91494 | -97.05169 | 1912 ft | 159 kts | 360° |
| 2026-05-06 18:01 | 32.92705 | -97.05108 | 2430 ft | 189 kts | 10° |
| 2026-05-06 18:01 | 32.94096 | -97.04845 | 2670 ft | 220 kts | 11° |
| 2026-05-06 18:01 | 32.95631 | -97.04493 | 3237 ft | 229 kts | 13° |
| 2026-05-06 18:01 | 32.97236 | -97.04120 | 3672 ft | 248 kts | 11° |
| 2026-05-06 18:02 | 32.99022 | -97.03782 | 4187 ft | 264 kts | 7° |
| 2026-05-06 18:02 | 33.00890 | -97.03484 | 4797 ft | 280 kts | 5° |
| 2026-05-06 18:02 | 33.02797 | -97.02838 | 5487 ft | 291 kts | 25° |
| 2026-05-06 18:02 | 33.04521 | -97.01534 | 6249 ft | 299 kts | 38° |
| 2026-05-06 18:03 | 33.06039 | -96.99811 | 7039 ft | 303 kts | 49° |
| 2026-05-06 18:03 | 33.07332 | -96.97826 | 7842 ft | 306 kts | 60° |
| 2026-05-06 18:03 | 33.08158 | -96.95514 | 8538 ft | 311 kts | 78° |
| 2026-05-06 18:03 | 33.08375 | -96.92954 | 9324 ft | 311 kts | 97° |
| 2026-05-06 18:04 | 33.08031 | -96.90393 | 9880 ft | 315 kts | 104° |
| 2026-05-06 18:04 | 33.07579 | -96.87796 | 10373 ft | 328 kts | 104° |
| 2026-05-06 18:04 | 33.07132 | -96.85039 | 10784 ft | 345 kts | 104° |
| 2026-05-06 18:04 | 33.06658 | -96.82205 | 11426 ft | 350 kts | 110° |
| 2026-05-06 18:05 | 33.05855 | -96.79466 | 12116 ft | 351 kts | 117° |
| 2026-05-06 18:05 | 33.04902 | -96.76781 | 12851 ft | 353 kts | 119° |
| 2026-05-06 18:05 | 33.03908 | -96.74081 | 13611 ft | 356 kts | 120° |
| 2026-05-06 18:05 | 33.02915 | -96.71357 | 14277 ft | 361 kts | 120° |
| 2026-05-06 18:06 | 33.01921 | -96.68580 | 14867 ft | 367 kts | 120° |
| 2026-05-06 18:06 | 33.00933 | -96.65775 | 15439 ft | 374 kts | 120° |
| 2026-05-06 18:06 | 32.99930 | -96.62896 | 16010 ft | 380 kts | 120° |
| 2026-05-06 18:06 | 32.98916 | -96.59965 | 16600 ft | 385 kts | 121° |
| 2026-05-06 18:07 | 32.97890 | -96.56991 | 17146 ft | 391 kts | 121° |
| 2026-05-06 18:07 | 32.96852 | -96.53982 | 17732 ft | 395 kts | 121° |
| 2026-05-06 18:07 | 32.95801 | -96.50933 | 18305 ft | 400 kts | 121° |
| 2026-05-06 18:07 | 32.94734 | -96.47846 | 18793 ft | 406 kts | 121° |
| 2026-05-06 18:08 | 32.93655 | -96.44722 | 19302 ft | 410 kts | 121° |
| 2026-05-06 18:08 | 32.92565 | -96.41570 | 19827 ft | 414 kts | 121° |
| 2026-05-06 18:08 | 32.91462 | -96.38387 | 20336 ft | 418 kts | 121° |
| 2026-05-06 18:08 | 32.90497 | -96.35066 | 20778 ft | 435 kts | 106° |
| 2026-05-06 18:09 | 32.90431 | -96.31443 | 21235 ft | 453 kts | 84° |
| 2026-05-06 18:09 | 32.91321 | -96.27816 | 21757 ft | 459 kts | 70° |
| 2026-05-06 18:09 | 32.92495 | -96.24266 | 22252 ft | 463 kts | 68° |
| 2026-05-06 18:09 | 32.93720 | -96.20686 | 22704 ft | 469 kts | 68° |
| 2026-05-06 18:10 | 32.94952 | -96.17067 | 23167 ft | 473 kts | 68° |
| 2026-05-06 18:10 | 32.96179 | -96.13397 | 23652 ft | 477 kts | 68° |
| 2026-05-06 18:10 | 32.97377 | -96.09746 | 24043 ft | 481 kts | 69° |
| 2026-05-06 18:10 | 32.98584 | -96.06021 | 24459 ft | 483 kts | 69° |
| 2026-05-06 18:11 | 32.99793 | -96.02268 | 24927 ft | 485 kts | 69° |
| 2026-05-06 18:11 | 33.00608 | -95.99731 | 25194 ft | 487 kts | 69° |
| 2026-05-06 18:11 | 33.01810 | -95.95985 | 25572 ft | 491 kts | 69° |
| 2026-05-06 18:11 | 33.03038 | -95.92161 | 25817 ft | 498 kts | 69° |
| 2026-05-06 18:12 | 33.04285 | -95.88280 | 26136 ft | 503 kts | 69° |
| 2026-05-06 18:12 | 33.05534 | -95.84387 | 26519 ft | 505 kts | 69° |
| 2026-05-06 18:12 | 33.06794 | -95.80460 | 26909 ft | 508 kts | 69° |
| 2026-05-06 18:12 | 33.08062 | -95.76511 | 27267 ft | 512 kts | 69° |
| 2026-05-06 18:13 | 33.09340 | -95.72530 | 27585 ft | 515 kts | 69° |
| 2026-05-06 18:13 | 33.10625 | -95.68521 | 27935 ft | 518 kts | 69° |
| 2026-05-06 18:13 | 33.11914 | -95.64496 | 28340 ft | 520 kts | 69° |
| 2026-05-06 18:13 | 33.13206 | -95.60452 | 28707 ft | 523 kts | 69° |
| 2026-05-06 18:14 | 33.14504 | -95.56386 | 29015 ft | 526 kts | 69° |
| 2026-05-06 18:14 | 33.15796 | -95.52331 | 29305 ft | 530 kts | 69° |
| 2026-05-06 18:14 | 33.17110 | -95.48203 | 29628 ft | 533 kts | 69° |
| 2026-05-06 18:14 | 33.18427 | -95.44059 | 29964 ft | 536 kts | 69° |
| 2026-05-06 18:15 | 33.19751 | -95.39886 | 30245 ft | 539 kts | 70° |
| 2026-05-06 18:15 | 33.21080 | -95.35693 | 30500 ft | 541 kts | 70° |
| 2026-05-06 18:15 | 33.22411 | -95.31487 | 30801 ft | 541 kts | 69° |
| 2026-05-06 18:15 | 33.23729 | -95.27316 | 31353 ft | 534 kts | 69° |
| 2026-05-06 18:16 | 33.25042 | -95.23156 | 31557 ft | 536 kts | 70° |
| 2026-05-06 18:16 | 33.26365 | -95.18959 | 31609 ft | 542 kts | 70° |
| 2026-05-06 18:16 | 33.27657 | -95.14857 | 31726 ft | 545 kts | 70° |
| 2026-05-06 18:16 | 33.28990 | -95.10614 | 31937 ft | 546 kts | 70° |
| 2026-05-06 18:17 | 33.30329 | -95.06351 | 32169 ft | 546 kts | 70° |
| 2026-05-06 18:17 | 33.31665 | -95.02088 | 32370 ft | 547 kts | 70° |
| 2026-05-06 18:17 | 33.32959 | -94.97957 | 32547 ft | 549 kts | 70° |
| 2026-05-06 18:17 | 33.34297 | -94.93676 | 32708 ft | 551 kts | 70° |
| 2026-05-06 18:18 | 33.35639 | -94.89375 | 32842 ft | 554 kts | 70° |
| 2026-05-06 18:18 | 33.36986 | -94.85054 | 33011 ft | 555 kts | 70° |
| 2026-05-06 18:18 | 33.38332 | -94.80733 | 33273 ft | 554 kts | 70° |
| 2026-05-06 18:18 | 33.39675 | -94.76412 | 33569 ft | 553 kts | 70° |
| 2026-05-06 18:19 | 33.41014 | -94.72100 | 33833 ft | 552 kts | 70° |
| 2026-05-06 18:19 | 33.42353 | -94.67779 | 34087 ft | 552 kts | 70° |
| 2026-05-06 18:19 | 33.43685 | -94.63475 | 34321 ft | 552 kts | 70° |
| 2026-05-06 18:19 | 33.45020 | -94.59156 | 34479 ft | 553 kts | 70° |
| 2026-05-06 18:20 | 33.46357 | -94.54826 | 34591 ft | 555 kts | 70° |
| 2026-05-06 18:20 | 33.47697 | -94.50478 | 34685 ft | 558 kts | 70° |
| 2026-05-06 18:20 | 33.49040 | -94.46112 | 34871 ft | 559 kts | 70° |
| 2026-05-06 18:20 | 33.50384 | -94.41740 | 35106 ft | 558 kts | 70° |
| 2026-05-06 18:21 | 33.51708 | -94.37424 | 35349 ft | 558 kts | 69° |
| 2026-05-06 18:21 | 33.53045 | -94.33061 | 35577 ft | 558 kts | 69° |
| 2026-05-06 18:21 | 33.54381 | -94.28694 | 35755 ft | 559 kts | 69° |
| 2026-05-06 18:21 | 33.55717 | -94.24314 | 35933 ft | 560 kts | 69° |
| 2026-05-06 18:22 | 33.57038 | -94.19925 | 36121 ft | 560 kts | 70° |
| 2026-05-06 18:22 | 33.58349 | -94.15522 | 36307 ft | 561 kts | 70° |
| 2026-05-06 18:22 | 33.59657 | -94.11108 | 36445 ft | 563 kts | 70° |
| 2026-05-06 18:22 | 33.60966 | -94.06682 | 36614 ft | 563 kts | 69° |
| 2026-05-06 18:23 | 33.62277 | -94.02251 | 36862 ft | 563 kts | 69° |
| 2026-05-06 18:23 | 33.63586 | -93.97823 | 37028 ft | 564 kts | 69° |
| 2026-05-06 18:23 | 33.66229 | -93.88882 | 37040 ft | 569 kts | 69° |
| 2026-05-06 18:24 | 33.68863 | -93.79949 | 37029 ft | 566 kts | 69° |
| 2026-05-06 18:24 | 33.71480 | -93.71041 | 37020 ft | 564 kts | 69° |
| 2026-05-06 18:25 | 33.74066 | -93.62210 | 37015 ft | 562 kts | 69° |
| 2026-05-06 18:25 | 33.76660 | -93.53329 | 37021 ft | 561 kts | 69° |
| 2026-05-06 18:26 | 33.79236 | -93.44482 | 37033 ft | 561 kts | 69° |
| 2026-05-06 18:26 | 33.81808 | -93.35622 | 37031 ft | 561 kts | 70° |
| 2026-05-06 18:27 | 33.84360 | -93.26802 | 37043 ft | 563 kts | 70° |
| 2026-05-06 18:27 | 33.86931 | -93.17887 | 37068 ft | 564 kts | 70° |
| 2026-05-06 18:28 | 33.89504 | -93.08943 | 37076 ft | 566 kts | 69° |
| 2026-05-06 18:28 | 33.92501 | -93.00189 | 37127 ft | 565 kts | 62° |
| 2026-05-06 18:29 | 33.95867 | -92.91600 | 37080 ft | 568 kts | 62° |
| 2026-05-06 18:29 | 33.99171 | -92.82936 | 37075 ft | 570 kts | 63° |
| 2026-05-06 18:30 | 34.02351 | -92.74317 | 37043 ft | 571 kts | 63° |
| 2026-05-06 18:30 | 34.05554 | -92.65609 | 37019 ft | 571 kts | 63° |
| 2026-05-06 18:31 | 34.08820 | -92.56883 | 37049 ft | 570 kts | 63° |
| 2026-05-06 18:31 | 34.12093 | -92.48178 | 37035 ft | 569 kts | 63° |
| 2026-05-06 18:32 | 34.15331 | -92.39446 | 37039 ft | 568 kts | 63° |
| 2026-05-06 18:32 | 34.18551 | -92.30748 | 37056 ft | 567 kts | 63° |
| 2026-05-06 18:33 | 34.21767 | -92.22053 | 37064 ft | 567 kts | 63° |
| 2026-05-06 18:33 | 34.24971 | -92.13361 | 37066 ft | 566 kts | 63° |
| 2026-05-06 18:34 | 34.28146 | -92.04722 | 37077 ft | 565 kts | 63° |
| 2026-05-06 18:34 | 34.31336 | -91.96017 | 37071 ft | 565 kts | 63° |
| 2026-05-06 18:35 | 34.34402 | -91.87628 | 37065 ft | 564 kts | 63° |
| 2026-05-06 18:35 | 34.37567 | -91.78947 | 37051 ft | 564 kts | 63° |
| 2026-05-06 18:36 | 34.40729 | -91.70249 | 37043 ft | 564 kts | 63° |
| 2026-05-06 18:36 | 34.43760 | -91.61892 | 37054 ft | 564 kts | 63° |
| 2026-05-06 18:37 | 34.46853 | -91.53338 | 37151 ft | 564 kts | 63° |
| 2026-05-06 18:37 | 34.50006 | -91.44600 | 37110 ft | 566 kts | 63° |
| 2026-05-06 18:38 | 34.53155 | -91.35844 | 37096 ft | 566 kts | 63° |
| 2026-05-06 18:38 | 34.56299 | -91.27080 | 37079 ft | 567 kts | 63° |
| 2026-05-06 18:39 | 34.59425 | -91.18341 | 37057 ft | 567 kts | 63° |
| 2026-05-06 18:40 | 34.64129 | -91.05145 | 37044 ft | 567 kts | 63° |
| 2026-05-06 18:40 | 34.67260 | -90.96333 | 37046 ft | 567 kts | 63° |
| 2026-05-06 18:41 | 34.70382 | -90.87520 | 37043 ft | 567 kts | 63° |
| 2026-05-06 18:41 | 34.73496 | -90.78707 | 37101 ft | 567 kts | 63° |
| 2026-05-06 18:42 | 34.76587 | -90.69935 | 37050 ft | 567 kts | 64° |
| 2026-05-06 18:42 | 34.79690 | -90.61101 | 37047 ft | 567 kts | 64° |
| 2026-05-06 18:43 | 34.82784 | -90.52269 | 37048 ft | 566 kts | 64° |
| 2026-05-06 18:43 | 34.85781 | -90.43689 | 37058 ft | 566 kts | 64° |
| 2026-05-06 18:44 | 34.88856 | -90.34864 | 37036 ft | 566 kts | 64° |
| 2026-05-06 18:44 | 34.91902 | -90.26096 | 37026 ft | 566 kts | 64° |
| 2026-05-06 18:45 | 34.94969 | -90.17244 | 37038 ft | 566 kts | 64° |
| 2026-05-06 18:45 | 34.98028 | -90.08386 | 37027 ft | 566 kts | 64° |
| 2026-05-06 18:46 | 35.01081 | -89.99525 | 37051 ft | 567 kts | 64° |
| 2026-05-06 18:46 | 35.04183 | -89.90697 | 37035 ft | 565 kts | 63° |
| 2026-05-06 18:47 | 35.07353 | -89.81917 | 37026 ft | 565 kts | 63° |
| 2026-05-06 18:47 | 35.10522 | -89.73113 | 37013 ft | 566 kts | 63° |
| 2026-05-06 18:48 | 35.13647 | -89.64351 | 37027 ft | 565 kts | 63° |
| 2026-05-06 18:48 | 35.16777 | -89.55528 | 37027 ft | 566 kts | 63° |
| 2026-05-06 18:49 | 35.19908 | -89.46680 | 37032 ft | 565 kts | 63° |
| 2026-05-06 18:49 | 35.23011 | -89.37894 | 37027 ft | 566 kts | 63° |
| 2026-05-06 18:50 | 35.26124 | -89.29055 | 37054 ft | 567 kts | 63° |
| 2026-05-06 18:50 | 35.29249 | -89.20155 | 37021 ft | 567 kts | 63° |
| 2026-05-06 18:51 | 35.32360 | -89.11268 | 37015 ft | 568 kts | 63° |
| 2026-05-06 18:51 | 35.35451 | -89.02422 | 37041 ft | 568 kts | 63° |
| 2026-05-06 18:52 | 35.38560 | -88.93506 | 37039 ft | 568 kts | 63° |
| 2026-05-06 18:52 | 35.41660 | -88.84589 | 37041 ft | 568 kts | 64° |
| 2026-05-06 18:53 | 35.44752 | -88.75668 | 37043 ft | 568 kts | 64° |
| 2026-05-06 18:53 | 35.47840 | -88.66732 | 37030 ft | 568 kts | 64° |
| 2026-05-06 18:54 | 35.50901 | -88.57845 | 37059 ft | 569 kts | 64° |
| 2026-05-06 18:54 | 35.53978 | -88.48888 | 37040 ft | 569 kts | 64° |
| 2026-05-06 18:55 | 35.57048 | -88.39930 | 37030 ft | 569 kts | 64° |
| 2026-05-06 18:55 | 35.60110 | -88.30973 | 37027 ft | 568 kts | 64° |
| 2026-05-06 18:56 | 35.63164 | -88.22014 | 37031 ft | 568 kts | 64° |
| 2026-05-06 18:56 | 35.66211 | -88.13048 | 37038 ft | 568 kts | 64° |
| 2026-05-06 18:57 | 35.69242 | -88.04101 | 37043 ft | 570 kts | 64° |
| 2026-05-06 18:57 | 35.72294 | -87.95068 | 37039 ft | 573 kts | 64° |
| 2026-05-06 18:58 | 35.74852 | -87.87471 | 37043 ft | 573 kts | 64° |
| 2026-05-06 18:58 | 35.77899 | -87.78400 | 37029 ft | 572 kts | 64° |
| 2026-05-06 18:59 | 35.80897 | -87.69405 | 37013 ft | 571 kts | 64° |
| 2026-05-06 18:59 | 35.83881 | -87.60354 | 37030 ft | 570 kts | 64° |
| 2026-05-06 19:00 | 35.86856 | -87.51301 | 37025 ft | 568 kts | 64° |
| 2026-05-06 19:00 | 35.89822 | -87.42262 | 37034 ft | 567 kts | 64° |
| 2026-05-06 19:01 | 35.92761 | -87.33284 | 37031 ft | 567 kts | 65° |
| 2026-05-06 19:01 | 35.95724 | -87.24205 | 37022 ft | 566 kts | 65° |
| 2026-05-06 19:02 | 35.98640 | -87.15243 | 37018 ft | 566 kts | 65° |
| 2026-05-06 19:02 | 36.01586 | -87.06158 | 37004 ft | 566 kts | 65° |
| 2026-05-06 19:03 | 36.04507 | -86.97124 | 36997 ft | 566 kts | 65° |
| 2026-05-06 19:03 | 36.07401 | -86.88145 | 36990 ft | 566 kts | 65° |
| 2026-05-06 19:04 | 36.10313 | -86.79080 | 37035 ft | 566 kts | 65° |
| 2026-05-06 19:04 | 36.13219 | -86.70010 | 37035 ft | 566 kts | 65° |
| 2026-05-06 19:05 | 36.16115 | -86.61020 | 37036 ft | 566 kts | 65° |
| 2026-05-06 19:05 | 36.19055 | -86.51984 | 37030 ft | 565 kts | 64° |
| 2026-05-06 19:06 | 36.21988 | -86.42944 | 37048 ft | 566 kts | 64° |
| 2026-05-06 19:06 | 36.24909 | -86.33888 | 37054 ft | 566 kts | 65° |
| 2026-05-06 19:07 | 36.27823 | -86.24815 | 36995 ft | 566 kts | 65° |
| 2026-05-06 19:07 | 36.30727 | -86.15748 | 36967 ft | 565 kts | 65° |
| 2026-05-06 19:08 | 36.33610 | -86.06717 | 36976 ft | 565 kts | 65° |
| 2026-05-06 19:08 | 36.36490 | -85.97669 | 36984 ft | 564 kts | 65° |
| 2026-05-06 19:09 | 36.39362 | -85.88618 | 36979 ft | 563 kts | 65° |
| 2026-05-06 19:09 | 36.42223 | -85.79574 | 36982 ft | 561 kts | 65° |
| 2026-05-06 19:10 | 36.44875 | -85.71165 | 36977 ft | 563 kts | 65° |
| 2026-05-06 19:10 | 36.47714 | -85.62134 | 36987 ft | 563 kts | 65° |
| 2026-05-06 19:11 | 36.50545 | -85.53105 | 36983 ft | 564 kts | 65° |
| 2026-05-06 19:11 | 36.53380 | -85.44034 | 36970 ft | 565 kts | 65° |
| 2026-05-06 19:12 | 36.56226 | -85.34895 | 36973 ft | 566 kts | 65° |
| 2026-05-06 19:12 | 36.59060 | -85.25763 | 36962 ft | 566 kts | 65° |
| 2026-05-06 19:13 | 36.61894 | -85.16608 | 36975 ft | 567 kts | 65° |
| 2026-05-06 19:13 | 36.64731 | -85.07411 | 37037 ft | 568 kts | 65° |
| 2026-05-06 19:14 | 36.67544 | -84.98258 | 37000 ft | 570 kts | 65° |
| 2026-05-06 19:14 | 36.70370 | -84.89032 | 37009 ft | 569 kts | 65° |
| 2026-05-06 19:15 | 36.73188 | -84.79801 | 37014 ft | 569 kts | 65° |
| 2026-05-06 19:15 | 36.75993 | -84.70584 | 37007 ft | 568 kts | 65° |
| 2026-05-06 19:16 | 36.78787 | -84.61375 | 36995 ft | 566 kts | 65° |
| 2026-05-06 19:16 | 36.81550 | -84.52243 | 36964 ft | 564 kts | 65° |
| 2026-05-06 19:17 | 36.84322 | -84.43072 | 36962 ft | 564 kts | 65° |
| 2026-05-06 19:17 | 36.87082 | -84.33913 | 36997 ft | 563 kts | 65° |
| 2026-05-06 19:18 | 36.89817 | -84.24802 | 36992 ft | 562 kts | 65° |
| 2026-05-06 19:18 | 36.92556 | -84.15650 | 36977 ft | 562 kts | 65° |
| 2026-05-06 19:19 | 36.95287 | -84.06495 | 36981 ft | 561 kts | 65° |
| 2026-05-06 19:19 | 36.98004 | -83.97336 | 36984 ft | 561 kts | 65° |
| 2026-05-06 19:20 | 37.00706 | -83.88171 | 36966 ft | 562 kts | 65° |
| 2026-05-06 19:20 | 37.03131 | -83.79921 | 36950 ft | 562 kts | 65° |
| 2026-05-06 19:21 | 37.05826 | -83.70724 | 36939 ft | 562 kts | 65° |
| 2026-05-06 19:21 | 37.08506 | -83.61554 | 36929 ft | 564 kts | 65° |
| 2026-05-06 19:22 | 37.11200 | -83.52305 | 36912 ft | 564 kts | 65° |
| 2026-05-06 19:22 | 37.13878 | -83.43071 | 36916 ft | 564 kts | 65° |
| 2026-05-06 19:23 | 37.16559 | -83.33804 | 36923 ft | 565 kts | 65° |
| 2026-05-06 19:23 | 37.19188 | -83.24681 | 36898 ft | 565 kts | 65° |
| 2026-05-06 19:24 | 37.21855 | -83.15398 | 36898 ft | 565 kts | 66° |
| 2026-05-06 19:24 | 37.24508 | -83.06127 | 36914 ft | 564 kts | 65° |
| 2026-05-06 19:25 | 37.27134 | -82.96929 | 36968 ft | 562 kts | 65° |
| 2026-05-06 19:25 | 37.29765 | -82.87689 | 36911 ft | 561 kts | 66° |
| 2026-05-06 19:26 | 37.32372 | -82.78499 | 36914 ft | 561 kts | 66° |
| 2026-05-06 19:26 | 37.34984 | -82.69261 | 36935 ft | 560 kts | 65° |
| 2026-05-06 19:27 | 37.37564 | -82.60106 | 36954 ft | 560 kts | 66° |
| 2026-05-06 19:27 | 37.39822 | -82.52063 | 36946 ft | 561 kts | 66° |
| 2026-05-06 19:28 | 37.42405 | -82.42832 | 36892 ft | 560 kts | 66° |
| 2026-05-06 19:28 | 37.44731 | -82.34491 | 36890 ft | 559 kts | 65° |
| 2026-05-06 19:29 | 37.47103 | -82.25968 | 36932 ft | 559 kts | 66° |
| 2026-05-06 19:29 | 37.49674 | -82.16696 | 36897 ft | 561 kts | 66° |
| 2026-05-06 19:30 | 37.51935 | -82.08519 | 36880 ft | 561 kts | 66° |
| 2026-05-06 19:30 | 37.54244 | -82.00167 | 36909 ft | 561 kts | 66° |
| 2026-05-06 19:31 | 37.56741 | -81.91117 | 36895 ft | 562 kts | 66° |
| 2026-05-06 19:31 | 37.60568 | -81.77165 | 36883 ft | 560 kts | 66° |
| 2026-05-06 19:32 | 37.63071 | -81.67951 | 36897 ft | 558 kts | 66° |
| 2026-05-06 19:32 | 37.65577 | -81.58687 | 36928 ft | 557 kts | 66° |
| 2026-05-06 19:33 | 37.68076 | -81.49421 | 36899 ft | 558 kts | 66° |
| 2026-05-06 19:33 | 37.70570 | -81.40148 | 36933 ft | 557 kts | 66° |
| 2026-05-06 19:34 | 37.73052 | -81.30878 | 36939 ft | 556 kts | 66° |
| 2026-05-06 19:34 | 37.75524 | -81.21616 | 36944 ft | 556 kts | 66° |
| 2026-05-06 19:35 | 37.77990 | -81.12354 | 36960 ft | 555 kts | 66° |
| 2026-05-06 19:35 | 37.80951 | -81.03411 | 36957 ft | 549 kts | 58° |
| 2026-05-06 19:36 | 37.84234 | -80.94713 | 36963 ft | 548 kts | 58° |
| 2026-05-06 19:36 | 37.87396 | -80.85900 | 36937 ft | 551 kts | 59° |
| 2026-05-06 19:37 | 37.90501 | -80.77087 | 36902 ft | 551 kts | 59° |
| 2026-05-06 19:37 | 37.93143 | -80.69664 | 36890 ft | 551 kts | 59° |
| 2026-05-06 19:38 | 37.96800 | -80.59380 | 36923 ft | 551 kts | 59° |
| 2026-05-06 19:38 | 37.99933 | -80.50520 | 36735 ft | 552 kts | 59° |
| 2026-05-06 19:39 | 38.01498 | -80.46078 | 36448 ft | 549 kts | 60° |
| 2026-05-06 19:39 | 38.03040 | -80.41688 | 36198 ft | 543 kts | 60° |
| 2026-05-06 19:39 | 38.04569 | -80.37331 | 35929 ft | 536 kts | 60° |
| 2026-05-06 19:39 | 38.06083 | -80.33019 | 35689 ft | 534 kts | 60° |
| 2026-05-06 19:40 | 38.07594 | -80.28719 | 35449 ft | 533 kts | 60° |
| 2026-05-06 19:40 | 38.09097 | -80.24430 | 35210 ft | 531 kts | 60° |
| 2026-05-06 19:40 | 38.10606 | -80.20159 | 34964 ft | 530 kts | 59° |
| 2026-05-06 19:40 | 38.12119 | -80.15907 | 34717 ft | 528 kts | 59° |
| 2026-05-06 19:41 | 38.13631 | -80.11665 | 34496 ft | 526 kts | 60° |
| 2026-05-06 19:41 | 38.15136 | -80.07435 | 34254 ft | 525 kts | 60° |
| 2026-05-06 19:41 | 38.16628 | -80.03226 | 33966 ft | 520 kts | 60° |
| 2026-05-06 19:41 | 38.17953 | -79.99477 | 33625 ft | 517 kts | 60° |
| 2026-05-06 19:42 | 38.19421 | -79.95320 | 33223 ft | 513 kts | 60° |
| 2026-05-06 19:42 | 38.20880 | -79.91180 | 32841 ft | 510 kts | 60° |
| 2026-05-06 19:42 | 38.22322 | -79.87084 | 32507 ft | 507 kts | 61° |
| 2026-05-06 19:42 | 38.23760 | -79.82995 | 32114 ft | 505 kts | 61° |
| 2026-05-06 19:43 | 38.25190 | -79.78925 | 31692 ft | 503 kts | 61° |
| 2026-05-06 19:43 | 38.26610 | -79.74873 | 31329 ft | 499 kts | 62° |
| 2026-05-06 19:43 | 38.28015 | -79.70853 | 30989 ft | 496 kts | 62° |
| 2026-05-06 19:43 | 38.29407 | -79.66825 | 30646 ft | 494 kts | 62° |
| 2026-05-06 19:44 | 38.30782 | -79.62823 | 30287 ft | 493 kts | 63° |
| 2026-05-06 19:44 | 38.32154 | -79.58821 | 29911 ft | 492 kts | 63° |
| 2026-05-06 19:44 | 38.33057 | -79.56185 | 29605 ft | 491 kts | 63° |
| 2026-05-06 19:44 | 38.34865 | -79.50903 | 29048 ft | 487 kts | 63° |
| 2026-05-06 19:45 | 38.36215 | -79.46959 | 28677 ft | 484 kts | 63° |
| 2026-05-06 19:45 | 38.37124 | -79.44299 | 28432 ft | 482 kts | 63° |
| 2026-05-06 19:45 | 38.38440 | -79.40449 | 28043 ft | 478 kts | 63° |
| 2026-05-06 19:45 | 38.39762 | -79.36576 | 27691 ft | 475 kts | 63° |
| 2026-05-06 19:46 | 38.41075 | -79.32725 | 27365 ft | 471 kts | 63° |
| 2026-05-06 19:46 | 38.42366 | -79.28879 | 26983 ft | 470 kts | 66° |
| 2026-05-06 19:46 | 38.43294 | -79.24886 | 26611 ft | 471 kts | 75° |
| 2026-05-06 19:46 | 38.43967 | -79.20797 | 26239 ft | 469 kts | 78° |
| 2026-05-06 19:47 | 38.44785 | -79.15404 | 25758 ft | 467 kts | 78° |
| 2026-05-06 19:47 | 38.45223 | -79.12662 | 25506 ft | 465 kts | 77° |
| 2026-05-06 19:47 | 38.45907 | -79.08632 | 25158 ft | 463 kts | 76° |
| 2026-05-06 19:47 | 38.46608 | -79.04638 | 24780 ft | 461 kts | 76° |
| 2026-05-06 19:48 | 38.47311 | -79.00664 | 24431 ft | 458 kts | 76° |
| 2026-05-06 19:48 | 38.47995 | -78.96757 | 24100 ft | 455 kts | 76° |
| 2026-05-06 19:48 | 38.48680 | -78.92817 | 23719 ft | 454 kts | 76° |
| 2026-05-06 19:48 | 38.49361 | -78.88892 | 23343 ft | 452 kts | 76° |
| 2026-05-06 19:49 | 38.50038 | -78.84980 | 22905 ft | 450 kts | 76° |
| 2026-05-06 19:49 | 38.50676 | -78.81090 | 22528 ft | 445 kts | 77° |
| 2026-05-06 19:49 | 38.51275 | -78.77242 | 22156 ft | 439 kts | 77° |
| 2026-05-06 19:49 | 38.51862 | -78.73440 | 21783 ft | 433 kts | 77° |
| 2026-05-06 19:50 | 38.52444 | -78.69699 | 21436 ft | 427 kts | 77° |
| 2026-05-06 19:50 | 38.53023 | -78.66003 | 21098 ft | 421 kts | 77° |
| 2026-05-06 19:50 | 38.53600 | -78.62360 | 20750 ft | 415 kts | 77° |
| 2026-05-06 19:50 | 38.54173 | -78.58770 | 20447 ft | 411 kts | 76° |
| 2026-05-06 19:51 | 38.54745 | -78.55197 | 20128 ft | 409 kts | 76° |
| 2026-05-06 19:51 | 38.55313 | -78.51634 | 19799 ft | 408 kts | 76° |
| 2026-05-06 19:51 | 38.55877 | -78.48088 | 19480 ft | 407 kts | 76° |
| 2026-05-06 19:51 | 38.56434 | -78.44584 | 19120 ft | 407 kts | 76° |
| 2026-05-06 19:52 | 38.57000 | -78.41001 | 18780 ft | 407 kts | 76° |
| 2026-05-06 19:52 | 38.57575 | -78.37454 | 18431 ft | 408 kts | 75° |
| 2026-05-06 19:52 | 38.58192 | -78.33918 | 18066 ft | 407 kts | 75° |
| 2026-05-06 19:52 | 38.58816 | -78.30400 | 17704 ft | 405 kts | 75° |
| 2026-05-06 19:53 | 38.59429 | -78.26897 | 17346 ft | 403 kts | 75° |
| 2026-05-06 19:53 | 38.60080 | -78.23475 | 17002 ft | 399 kts | 69° |
| 2026-05-06 19:53 | 38.61072 | -78.20194 | 16656 ft | 393 kts | 62° |
| 2026-05-06 19:53 | 38.62189 | -78.17024 | 16345 ft | 390 kts | 61° |
| 2026-05-06 19:54 | 38.63282 | -78.13860 | 16025 ft | 388 kts | 62° |
| 2026-05-06 19:54 | 38.64330 | -78.10696 | 15691 ft | 385 kts | 63° |
| 2026-05-06 19:54 | 38.65351 | -78.07534 | 15376 ft | 383 kts | 64° |
| 2026-05-06 19:54 | 38.66360 | -78.04388 | 15044 ft | 381 kts | 64° |
| 2026-05-06 19:55 | 38.67364 | -78.01254 | 14708 ft | 378 kts | 64° |
| 2026-05-06 19:55 | 38.68359 | -77.98150 | 14384 ft | 376 kts | 64° |
| 2026-05-06 19:55 | 38.69339 | -77.95091 | 14041 ft | 375 kts | 64° |
| 2026-05-06 19:55 | 38.70323 | -77.92019 | 13738 ft | 372 kts | 65° |
| 2026-05-06 19:56 | 38.71299 | -77.88969 | 13400 ft | 370 kts | 65° |
| 2026-05-06 19:56 | 38.72283 | -77.85890 | 13081 ft | 367 kts | 65° |
| 2026-05-06 19:56 | 38.73271 | -77.82943 | 12738 ft | 363 kts | 58° |
| 2026-05-06 19:56 | 38.74774 | -77.80424 | 12437 ft | 351 kts | 41° |
| 2026-05-06 19:57 | 38.76436 | -77.78137 | 12129 ft | 350 kts | 42° |
| 2026-05-06 19:57 | 38.78077 | -77.75841 | 11783 ft | 349 kts | 43° |
| 2026-05-06 19:57 | 38.79685 | -77.73545 | 11456 ft | 343 kts | 43° |
| 2026-05-06 19:57 | 38.81255 | -77.71282 | 11150 ft | 337 kts | 43° |
| 2026-05-06 19:58 | 38.82794 | -77.69041 | 10812 ft | 332 kts | 44° |
| 2026-05-06 19:58 | 38.84296 | -77.66794 | 10499 ft | 331 kts | 45° |
| 2026-05-06 19:58 | 38.85794 | -77.64534 | 10114 ft | 335 kts | 46° |
| 2026-05-06 19:58 | 38.87291 | -77.62271 | 9890 ft | 325 kts | 46° |
| 2026-05-06 19:59 | 38.88737 | -77.60082 | 9454 ft | 326 kts | 46° |
| 2026-05-06 19:59 | 38.90206 | -77.57870 | 9029 ft | 324 kts | 46° |
| 2026-05-06 19:59 | 38.91674 | -77.55660 | 8652 ft | 326 kts | 46° |
| 2026-05-06 19:59 | 38.93144 | -77.53445 | 8251 ft | 325 kts | 46° |
| 2026-05-06 20:00 | 38.94521 | -77.51172 | 7975 ft | 317 kts | 58° |
| 2026-05-06 20:00 | 38.95440 | -77.48654 | 7617 ft | 316 kts | 65° |
| 2026-05-06 20:00 | 38.96246 | -77.46116 | 7522 ft | 295 kts | 66° |
| 2026-05-06 20:00 | 38.97007 | -77.43708 | 7061 ft | 287 kts | 65° |
| 2026-05-06 20:01 | 38.97741 | -77.41436 | 7021 ft | 264 kts | 65° |
| 2026-05-06 20:01 | 38.98435 | -77.39325 | 6916 ft | 249 kts | 64° |
| 2026-05-06 20:01 | 38.99093 | -77.37341 | 6778 ft | 235 kts | 64° |
| 2026-05-06 20:01 | 38.99711 | -77.35486 | 6471 ft | 232 kts | 63° |
| 2026-05-06 20:02 | 39.00336 | -77.33612 | 6153 ft | 230 kts | 63° |
| 2026-05-06 20:02 | 39.00963 | -77.31740 | 5819 ft | 226 kts | 64° |
| 2026-05-06 20:02 | 39.01579 | -77.29911 | 5487 ft | 225 kts | 64° |
| 2026-05-06 20:02 | 39.02178 | -77.28132 | 5116 ft | 226 kts | 64° |
| 2026-05-06 20:03 | 39.02719 | -77.26249 | 4789 ft | 224 kts | 82° |
| 2026-05-06 20:03 | 39.02448 | -77.24448 | 4465 ft | 209 kts | 130° |
| 2026-05-06 20:03 | 39.01532 | -77.23072 | 4157 ft | 201 kts | 139° |
| 2026-05-06 20:03 | 39.00663 | -77.21797 | 3810 ft | 202 kts | 137° |
| 2026-05-06 20:04 | 38.99768 | -77.20435 | 3522 ft | 199 kts | 136° |
| 2026-05-06 20:04 | 38.98888 | -77.19067 | 3170 ft | 200 kts | 136° |
| 2026-05-06 20:04 | 38.98038 | -77.17734 | 2868 ft | 197 kts | 136° |
| 2026-05-06 20:04 | 38.97219 | -77.16439 | 2554 ft | 196 kts | 136° |
| 2026-05-06 20:05 | 38.96351 | -77.15113 | 2244 ft | 191 kts | 143° |
| 2026-05-06 20:05 | 38.95474 | -77.14098 | 1999 ft | 183 kts | 148° |
| 2026-05-06 20:05 | 38.94558 | -77.13090 | 1719 ft | 169 kts | 147° |
| 2026-05-06 20:05 | 38.93679 | -77.12126 | 1307 ft | 165 kts | 147° |
| 2026-05-06 20:06 | 38.92718 | -77.11343 | 1303 ft | 169 kts | 155° |
| 2026-05-06 20:06 | 38.91721 | -77.10558 | 1163 ft | 167 kts | 151° |
| 2026-05-06 20:06 | 38.90965 | -77.09707 | 1146 ft | 158 kts | 136° |
| 2026-05-06 20:06 | 38.90452 | -77.08469 | 1006 ft | 160 kts | 112° |
| 2026-05-06 20:07 | 38.90160 | -77.07095 | 798 ft | 155 kts | 119° |
| 2026-05-06 20:07 | 38.89590 | -77.05980 | 662 ft | 147 kts | 140° |
| 2026-05-06 20:07 | 38.88827 | -77.05139 | 537 ft | 143 kts | 149° |
| 2026-05-06 20:07 | 38.87983 | -77.04472 | 410 ft | 141 kts | 159° |
| 2026-05-06 20:08 | 38.87078 | -77.04015 | 218 ft | 138 kts | 174° |
| 2026-05-06 20:08 | 38.86157 | -77.03876 | 64 ft | 132 kts | 180° |
| 2026-05-06 20:08 | 38.85327 | -77.03793 | 23 ft | 82 kts | 176° |
| 2026-05-06 20:08 | 38.85064 | -77.03767 | 25 ft | 18 kts | 176° |
| 2026-05-06 20:09 | 38.84943 | -77.03758 | 22 ft | 7 kts | 185° |
| 2026-05-06 20:09 | 38.84902 | -77.03781 | 22 ft | 7 kts | 220° |
| 2026-05-06 20:09 | 38.84880 | -77.03840 | 22 ft | 7 kts | 262° |
| 2026-05-06 20:09 | 38.84880 | -77.03860 | 23 ft | 0 kts | 270° |
| 2026-05-06 20:12 | 38.84879 | -77.03871 | 23 ft | 3 kts | 266° |
| 2026-05-06 20:12 | 38.84878 | -77.03906 | 23 ft | 4 kts | 268° |
| 2026-05-06 20:12 | 38.84886 | -77.03941 | 25 ft | 4 kts | 309° |
| 2026-05-06 20:13 | 38.84923 | -77.03956 | 24 ft | 8 kts | 353° |
| 2026-05-06 20:13 | 38.84986 | -77.03960 | 24 ft | 9 kts | 356° |
| 2026-05-06 20:13 | 38.85049 | -77.03967 | 23 ft | 9 kts | 355° |
| 2026-05-06 20:13 | 38.85110 | -77.03973 | 24 ft | 9 kts | 355° |
| 2026-05-06 20:14 | 38.85180 | -77.03980 | 24 ft | 10 kts | 355° |
| 2026-05-06 20:14 | 38.85251 | -77.03987 | 24 ft | 10 kts | 355° |
| 2026-05-06 20:14 | 38.85331 | -77.03995 | 26 ft | 13 kts | 355° |
| 2026-05-06 20:14 | 38.85426 | -77.04004 | 24 ft | 11 kts | 355° |
| 2026-05-06 20:15 | 38.85471 | -77.04015 | 24 ft | 4 kts | 323° |
| 2026-05-06 20:15 | 38.85470 | -77.04045 | 23 ft | 3 kts | 248° |
| 2026-05-06 20:15 | 38.85463 | -77.04060 | 23 ft | 1 kts | 240° |
| 2026-05-06 20:15 | 38.85460 | -77.04069 | 24 ft | 1 kts | 242° |
| 2026-05-06 20:16 | 38.85457 | -77.04075 | 23 ft | 0 kts | 242° |